KTIX/TIX METAR and TAF weather

Enter ICAO airport designator
Station Type Date Time Source
KTIX METAR 2019/08/26 00:47 UTC NOAA

KTIX 260047Z 01010KT 7SM SCT020 29/25 A2995


Station Type Date Time Source
KTIX Decoded METAR 2019/08/26 00:47 UTC NOAA

Station name not available
Aug 25, 2019 - 08:47 PM EDT / 2019.08.26 0047 UTC
Wind: from the N (010 degrees) at 12 MPH (10 KT):0
Visibility: 7 mile(s):0
Sky conditions: partly cloudy
Temperature: 84 F (29 C)
Dew Point: 77 F (25 C)
Relative Humidity: 79%
Pressure (altimeter): 29.95 in. Hg (1014 hPa)
ob: KTIX 260047Z 01010KT 7SM SCT020 29/25 A2995
cycle: 1

Station Type Date Time Source
KTIX TAF 2019/08/26 06:39 UTC NOAA

TAF KTIX 260537Z 2606/2706 01010KT P6SM SKC
FM261400 05006KT P6SM SCT020 SCT035
FM261800 06009KT P6SM FEW040
FM270100 VRB02KT P6SM SCT250

Example: see airport list